sensor_id;sensor_type;location;lat;lon;timestamp;pressure;altitude;pressure_sealevel;temperature;humidity
6395;BME280;3230;42.588;23.358;2022-12-07T00:02:01;90956.97;;;3.58;100.00
6395;BME280;3230;42.588;23.358;2022-12-07T00:04:26;90966.25;;;3.42;100.00
6395;BME280;3230;42.588;23.358;2022-12-07T00:06:52;90947.50;;;3.35;100.00
6395;BME280;3230;42.588;23.358;2022-12-07T00:09:18;90965.63;;;3.35;100.00
6395;BME280;3230;42.588;23.358;2022-12-07T00:11:48;90957.28;;;3.33;100.00
6395;BME280;3230;42.588;23.358;2022-12-07T00:14:15;90960.31;;;3.30;100.00
6395;BME280;3230;42.588;23.358;2022-12-07T00:16:42;90954.81;;;3.26;100.00
6395;BME280;3230;42.588;23.358;2022-12-07T00:19:10;90952.47;;;3.25;100.00
6395;BME280;3230;42.588;23.358;2022-12-07T00:21:37;90955.31;;;3.23;100.00
6395;BME280;3230;42.588;23.358;2022-12-07T00:24:04;90946.84;;;3.28;100.00
6395;BME280;3230;42.588;23.358;2022-12-07T00:26:32;90945.03;;;3.28;100.00
6395;BME280;3230;42.588;23.358;2022-12-07T00:29:00;90936.69;;;3.26;100.00
6395;BME280;3230;42.588;23.358;2022-12-07T00:31:28;90944.00;;;3.29;100.00
6395;BME280;3230;42.588;23.358;2022-12-07T00:33:53;90948.97;;;3.31;100.00
6395;BME280;3230;42.588;23.358;2022-12-07T00:36:21;90947.72;;;3.33;100.00
6395;BME280;3230;42.588;23.358;2022-12-07T00:38:47;90944.91;;;3.35;100.00
6395;BME280;3230;42.588;23.358;2022-12-07T00:41:15;90941.59;;;3.40;100.00
6395;BME280;3230;42.588;23.358;2022-12-07T00:43:42;90937.47;;;3.39;100.00
6395;BME280;3230;42.588;23.358;2022-12-07T00:46:08;90950.09;;;3.35;100.00
6395;BME280;3230;42.588;23.358;2022-12-07T00:48:34;90941.66;;;3.28;100.00
6395;BME280;3230;42.588;23.358;2022-12-07T00:51:00;90944.78;;;3.30;100.00
6395;BME280;3230;42.588;23.358;2022-12-07T00:53:27;90939.72;;;3.35;100.00
6395;BME280;3230;42.588;23.358;2022-12-07T00:55:53;90919.41;;;3.44;100.00
6395;BME280;3230;42.588;23.358;2022-12-07T00:58:19;90917.22;;;3.52;100.00
6395;BME280;3230;42.588;23.358;2022-12-07T01:00:45;90934.78;;;3.50;100.00
6395;BME280;3230;42.588;23.358;2022-12-07T01:03:12;90939.97;;;3.50;100.00
6395;BME280;3230;42.588;23.358;2022-12-07T01:05:39;90930.41;;;3.51;100.00
6395;BME280;3230;42.588;23.358;2022-12-07T01:08:05;90932.91;;;3.46;100.00
6395;BME280;3230;42.588;23.358;2022-12-07T01:10:31;90941.09;;;3.55;100.00
6395;BME280;3230;42.588;23.358;2022-12-07T01:12:57;90939.56;;;3.42;100.00
6395;BME280;3230;42.588;23.358;2022-12-07T01:15:23;90937.13;;;3.35;100.00
6395;BME280;3230;42.588;23.358;2022-12-07T01:17:48;90929.13;;;3.36;100.00
6395;BME280;3230;42.588;23.358;2022-12-07T01:20:14;90936.75;;;3.43;100.00
6395;BME280;3230;42.588;23.358;2022-12-07T01:22:41;90930.63;;;3.49;100.00
6395;BME280;3230;42.588;23.358;2022-12-07T01:25:08;90919.34;;;3.56;100.00
6395;BME280;3230;42.588;23.358;2022-12-07T01:27:34;90919.25;;;3.50;100.00
6395;BME280;3230;42.588;23.358;2022-12-07T01:30:00;90910.16;;;3.48;100.00
6395;BME280;3230;42.588;23.358;2022-12-07T01:32:27;90916.03;;;3.43;100.00
6395;BME280;3230;42.588;23.358;2022-12-07T01:34:52;90908.28;;;3.60;100.00
6395;BME280;3230;42.588;23.358;2022-12-07T01:37:18;90919.03;;;3.52;100.00
6395;BME280;3230;42.588;23.358;2022-12-07T01:39:43;90920.22;;;3.61;100.00
6395;BME280;3230;42.588;23.358;2022-12-07T01:42:12;90921.72;;;3.57;100.00
6395;BME280;3230;42.588;23.358;2022-12-07T01:47:41;90920.09;;;3.39;100.00
6395;BME280;3230;42.588;23.358;2022-12-07T01:50:08;90911.69;;;3.32;100.00
6395;BME280;3230;42.588;23.358;2022-12-07T01:52:35;90906.06;;;3.35;100.00
6395;BME280;3230;42.588;23.358;2022-12-07T01:55:08;90908.53;;;3.30;100.00
6395;BME280;3230;42.588;23.358;2022-12-07T01:57:36;90903.03;;;3.26;100.00
6395;BME280;3230;42.588;23.358;2022-12-07T02:00:05;90911.13;;;3.30;100.00
6395;BME280;3230;42.588;23.358;2022-12-07T02:02:38;90904.81;;;3.38;100.00
6395;BME280;3230;42.588;23.358;2022-12-07T02:05:07;90910.38;;;3.46;100.00
6395;BME280;3230;42.588;23.358;2022-12-07T02:07:34;90906.13;;;3.40;100.00
6395;BME280;3230;42.588;23.358;2022-12-07T02:10:21;90900.66;;;3.54;100.00
6395;BME280;3230;42.588;23.358;2022-12-07T02:12:59;90900.41;;;3.55;100.00
6395;BME280;3230;42.588;23.358;2022-12-07T02:15:34;90892.56;;;3.50;100.00
6395;BME280;3230;42.588;23.358;2022-12-07T02:18:38;90889.66;;;3.46;100.00
6395;BME280;3230;42.588;23.358;2022-12-07T02:28:45;90898.75;;;3.32;100.00
6395;BME280;3230;42.588;23.358;2022-12-07T02:31:15;90894.00;;;3.29;100.00
6395;BME280;3230;42.588;23.358;2022-12-07T02:33:49;90906.06;;;3.35;100.00
6395;BME280;3230;42.588;23.358;2022-12-07T02:36:25;90904.31;;;3.41;100.00
6395;BME280;3230;42.588;23.358;2022-12-07T02:41:37;90891.53;;;3.34;100.00
6395;BME280;3230;42.588;23.358;2022-12-07T02:44:18;90889.31;;;3.26;100.00
6395;BME280;3230;42.588;23.358;2022-12-07T02:47:12;90887.16;;;3.23;100.00
6395;BME280;3230;42.588;23.358;2022-12-07T02:49:39;90890.69;;;3.16;100.00
6395;BME280;3230;42.588;23.358;2022-12-07T02:52:05;90876.31;;;3.09;100.00
6395;BME280;3230;42.588;23.358;2022-12-07T02:54:31;90886.19;;;3.12;100.00
6395;BME280;3230;42.588;23.358;2022-12-07T03:02:35;90878.44;;;3.12;100.00
6395;BME280;3230;42.588;23.358;2022-12-07T03:08:13;90880.72;;;3.08;100.00
6395;BME280;3230;42.588;23.358;2022-12-07T03:13:33;90877.81;;;3.04;100.00
6395;BME280;3230;42.588;23.358;2022-12-07T03:16:24;90869.75;;;3.18;100.00
6395;BME280;3230;42.588;23.358;2022-12-07T03:18:58;90882.09;;;2.99;100.00
6395;BME280;3230;42.588;23.358;2022-12-07T03:21:28;90871.28;;;3.02;100.00
6395;BME280;3230;42.588;23.358;2022-12-07T03:23:58;90875.25;;;2.93;100.00
6395;BME280;3230;42.588;23.358;2022-12-07T03:26:31;90867.63;;;2.86;100.00
6395;BME280;3230;42.588;23.358;2022-12-07T03:29:00;90875.63;;;2.84;100.00
6395;BME280;3230;42.588;23.358;2022-12-07T03:31:39;90872.91;;;2.91;100.00
6395;BME280;3230;42.588;23.358;2022-12-07T03:34:19;90868.19;;;2.88;100.00
6395;BME280;3230;42.588;23.358;2022-12-07T03:36:51;90865.91;;;2.92;100.00
6395;BME280;3230;42.588;23.358;2022-12-07T03:39:36;90864.34;;;2.91;100.00
6395;BME280;3230;42.588;23.358;2022-12-07T03:42:05;90866.84;;;2.85;100.00
6395;BME280;3230;42.588;23.358;2022-12-07T03:44:33;90877.66;;;2.82;100.00
6395;BME280;3230;42.588;23.358;2022-12-07T03:49:32;90871.03;;;2.75;100.00
6395;BME280;3230;42.588;23.358;2022-12-07T03:52:25;90869.22;;;2.75;100.00
6395;BME280;3230;42.588;23.358;2022-12-07T03:57:27;90860.13;;;2.72;100.00
6395;BME280;3230;42.588;23.358;2022-12-07T03:59:55;90861.09;;;2.83;100.00
6395;BME280;3230;42.588;23.358;2022-12-07T04:02:22;90870.44;;;2.84;100.00
6395;BME280;3230;42.588;23.358;2022-12-07T04:04:49;90863.34;;;2.92;100.00
6395;BME280;3230;42.588;23.358;2022-12-07T04:07:14;90856.66;;;2.96;100.00
6395;BME280;3230;42.588;23.358;2022-12-07T04:09:40;90861.06;;;2.95;100.00
6395;BME280;3230;42.588;23.358;2022-12-07T04:12:05;90867.34;;;2.99;100.00
6395;BME280;3230;42.588;23.358;2022-12-07T04:14:31;90865.00;;;2.98;100.00
6395;BME280;3230;42.588;23.358;2022-12-07T04:16:58;90858.31;;;3.02;100.00
6395;BME280;3230;42.588;23.358;2022-12-07T04:19:26;90859.22;;;3.08;100.00
6395;BME280;3230;42.588;23.358;2022-12-07T04:21:52;90863.28;;;3.03;100.00
6395;BME280;3230;42.588;23.358;2022-12-07T04:24:17;90861.84;;;2.96;100.00
6395;BME280;3230;42.588;23.358;2022-12-07T04:26:43;90851.03;;;2.99;100.00
6395;BME280;3230;42.588;23.358;2022-12-07T04:29:10;90863.25;;;2.86;100.00
6395;BME280;3230;42.588;23.358;2022-12-07T04:31:36;90861.66;;;2.85;100.00
6395;BME280;3230;42.588;23.358;2022-12-07T04:34:02;90864.06;;;2.75;100.00
6395;BME280;3230;42.588;23.358;2022-12-07T04:36:28;90858.75;;;2.82;100.00
6395;BME280;3230;42.588;23.358;2022-12-07T04:38:54;90860.53;;;2.81;100.00
6395;BME280;3230;42.588;23.358;2022-12-07T04:41:21;90867.28;;;2.82;100.00
6395;BME280;3230;42.588;23.358;2022-12-07T04:43:56;90865.28;;;2.84;100.00
6395;BME280;3230;42.588;23.358;2022-12-07T04:46:23;90866.38;;;2.88;100.00
6395;BME280;3230;42.588;23.358;2022-12-07T04:48:49;90858.06;;;2.86;100.00
6395;BME280;3230;42.588;23.358;2022-12-07T04:51:20;90871.94;;;2.80;100.00
6395;BME280;3230;42.588;23.358;2022-12-07T04:53:46;90870.44;;;2.84;100.00
6395;BME280;3230;42.588;23.358;2022-12-07T04:56:11;90864.16;;;2.80;100.00
6395;BME280;3230;42.588;23.358;2022-12-07T04:58:37;90870.25;;;2.74;100.00
6395;BME280;3230;42.588;23.358;2022-12-07T05:01:02;90870.25;;;2.74;100.00
6395;BME280;3230;42.588;23.358;2022-12-07T05:03:28;90864.28;;;2.74;100.00
6395;BME280;3230;42.588;23.358;2022-12-07T05:05:53;90863.72;;;2.71;100.00
6395;BME280;3230;42.588;23.358;2022-12-07T05:08:19;90867.28;;;2.82;100.00
6395;BME280;3230;42.588;23.358;2022-12-07T05:10:44;90868.75;;;2.90;100.00
6395;BME280;3230;42.588;23.358;2022-12-07T05:13:09;90861.72;;;3.02;100.00
6395;BME280;3230;42.588;23.358;2022-12-07T05:15:35;90858.13;;;3.03;100.00
6395;BME280;3230;42.588;23.358;2022-12-07T05:18:00;90868.00;;;3.07;100.00
6395;BME280;3230;42.588;23.358;2022-12-07T05:20:26;90857.31;;;3.03;100.00
6395;BME280;3230;42.588;23.358;2022-12-07T05:22:51;90852.81;;;2.98;100.00
6395;BME280;3230;42.588;23.358;2022-12-07T05:25:16;90858.72;;;2.94;100.00
6395;BME280;3230;42.588;23.358;2022-12-07T05:27:42;90860.28;;;2.95;100.00
6395;BME280;3230;42.588;23.358;2022-12-07T05:30:08;90862.22;;;2.87;100.00
6395;BME280;3230;42.588;23.358;2022-12-07T05:32:33;90862.31;;;2.93;100.00
6395;BME280;3230;42.588;23.358;2022-12-07T05:34:59;90862.22;;;2.87;100.00
6395;BME280;3230;42.588;23.358;2022-12-07T05:37:24;90867.41;;;2.87;100.00
6395;BME280;3230;42.588;23.358;2022-12-07T05:39:49;90871.41;;;2.95;100.00
6395;BME280;3230;42.588;23.358;2022-12-07T05:42:15;90880.72;;;3.08;100.00
6395;BME280;3230;42.588;23.358;2022-12-07T05:44:45;90872.81;;;3.15;100.00
6395;BME280;3230;42.588;23.358;2022-12-07T05:47:12;90882.38;;;2.85;100.00
6395;BME280;3230;42.588;23.358;2022-12-07T05:49:38;90870.31;;;2.50;100.00
6395;BME280;3230;42.588;23.358;2022-12-07T05:52:04;90869.75;;;2.48;100.00
6395;BME280;3230;42.588;23.358;2022-12-07T05:54:30;90863.22;;;2.46;100.00
6395;BME280;3230;42.588;23.358;2022-12-07T05:56:55;90849.72;;;2.55;100.00
6395;BME280;3230;42.588;23.358;2022-12-07T05:59:21;90850.88;;;2.48;100.00
6395;BME280;3230;42.588;23.358;2022-12-07T06:01:57;90854.88;;;2.55;100.00
6395;BME280;3230;42.588;23.358;2022-12-07T06:04:24;90851.63;;;2.60;100.00
6395;BME280;3230;42.588;23.358;2022-12-07T06:06:50;90856.09;;;2.65;100.00
6395;BME280;3230;42.588;23.358;2022-12-07T06:09:16;90848.91;;;2.67;100.00
6395;BME280;3230;42.588;23.358;2022-12-07T06:11:43;90848.75;;;2.74;100.00
6395;BME280;3230;42.588;23.358;2022-12-07T06:14:28;90853.94;;;3.02;100.00
6395;BME280;3230;42.588;23.358;2022-12-07T06:16:54;90858.59;;;2.88;100.00
6395;BME280;3230;42.588;23.358;2022-12-07T06:19:20;90869.53;;;2.91;100.00
6395;BME280;3230;42.588;23.358;2022-12-07T06:21:45;90867.50;;;2.93;100.00
6395;BME280;3230;42.588;23.358;2022-12-07T06:24:11;90856.94;;;3.11;100.00
6395;BME280;3230;42.588;23.358;2022-12-07T06:26:38;90870.66;;;3.12;100.00
6395;BME280;3230;42.588;23.358;2022-12-07T06:29:03;90870.69;;;3.29;100.00
6395;BME280;3230;42.588;23.358;2022-12-07T06:31:29;90873.69;;;3.20;100.00
6395;BME280;3230;42.588;23.358;2022-12-07T06:34:02;90857.38;;;3.37;100.00
6395;BME280;3230;42.588;23.358;2022-12-07T06:36:29;90861.22;;;3.34;100.00
6395;BME280;3230;42.588;23.358;2022-12-07T06:38:55;90863.84;;;3.51;100.00
6395;BME280;3230;42.588;23.358;2022-12-07T06:41:21;90871.63;;;3.68;100.00
6395;BME280;3230;42.588;23.358;2022-12-07T06:43:46;90869.28;;;3.84;100.00
6395;BME280;3230;42.588;23.358;2022-12-07T06:46:13;90868.47;;;4.00;100.00
6395;BME280;3230;42.588;23.358;2022-12-07T06:48:39;90873.72;;;4.23;100.00
6395;BME280;3230;42.588;23.358;2022-12-07T06:51:05;90871.91;;;4.45;100.00
6395;BME280;3230;42.588;23.358;2022-12-07T06:53:31;90872.75;;;4.29;100.00
6395;BME280;3230;42.588;23.358;2022-12-07T06:55:56;90878.63;;;4.41;100.00
6395;BME280;3230;42.588;23.358;2022-12-07T06:58:21;90878.69;;;4.46;100.00
6395;BME280;3230;42.588;23.358;2022-12-07T07:00:48;90883.00;;;4.41;100.00
6395;BME280;3230;42.588;23.358;2022-12-07T07:03:14;90882.66;;;4.54;100.00
6395;BME280;3230;42.588;23.358;2022-12-07T07:05:40;90880.16;;;4.82;100.00
6395;BME280;3230;42.588;23.358;2022-12-07T07:08:05;90875.06;;;4.92;100.00
6395;BME280;3230;42.588;23.358;2022-12-07T07:10:31;90880.47;;;5.12;100.00
6395;BME280;3230;42.588;23.358;2022-12-07T07:12:56;90886.97;;;4.88;100.00
6395;BME280;3230;42.588;23.358;2022-12-07T07:15:22;90879.78;;;4.95;100.00
6395;BME280;3230;42.588;23.358;2022-12-07T07:17:47;90880.69;;;5.33;100.00
6395;BME280;3230;42.588;23.358;2022-12-07T07:20:13;90877.06;;;5.34;100.00
6395;BME280;3230;42.588;23.358;2022-12-07T07:22:38;90871.63;;;5.36;100.00
6395;BME280;3230;42.588;23.358;2022-12-07T07:25:04;90872.00;;;5.44;100.00
6395;BME280;3230;42.588;23.358;2022-12-07T07:27:29;90874.63;;;5.50;100.00
6395;BME280;3230;42.588;23.358;2022-12-07T07:29:55;90883.34;;;5.66;100.00
6395;BME280;3230;42.588;23.358;2022-12-07T07:32:20;90881.00;;;5.64;100.00
6395;BME280;3230;42.588;23.358;2022-12-07T07:34:47;90891.56;;;5.85;100.00
6395;BME280;3230;42.588;23.358;2022-12-07T07:37:12;90888.56;;;5.98;100.00
6395;BME280;3230;42.588;23.358;2022-12-07T07:39:38;90899.03;;;6.03;100.00
6395;BME280;3230;42.588;23.358;2022-12-07T07:42:04;90893.69;;;5.93;100.00
6395;BME280;3230;42.588;23.358;2022-12-07T07:44:29;90889.41;;;5.76;100.00
6395;BME280;3230;42.588;23.358;2022-12-07T07:46:55;90890.25;;;5.55;100.00
6395;BME280;3230;42.588;23.358;2022-12-07T07:49:20;90890.66;;;5.69;100.00
6395;BME280;3230;42.588;23.358;2022-12-07T07:51:46;90886.97;;;5.65;100.00
6395;BME280;3230;42.588;23.358;2022-12-07T07:54:11;90884.13;;;5.66;100.00
6395;BME280;3230;42.588;23.358;2022-12-07T07:56:36;90886.97;;;5.65;100.00
6395;BME280;3230;42.588;23.358;2022-12-07T07:59:02;90888.50;;;5.60;100.00
6395;BME280;3230;42.588;23.358;2022-12-07T08:01:27;90887.16;;;5.85;100.00
6395;BME280;3230;42.588;23.358;2022-12-07T08:03:53;90894.44;;;6.16;100.00
6395;BME280;3230;42.588;23.358;2022-12-07T08:06:18;90904.66;;;5.95;100.00
6395;BME280;3230;42.588;23.358;2022-12-07T08:08:44;90897.00;;;6.11;100.00
6395;BME280;3230;42.588;23.358;2022-12-07T08:11:09;90899.63;;;6.16;100.00
6395;BME280;3230;42.588;23.358;2022-12-07T08:13:35;90886.59;;;6.11;100.00
6395;BME280;3230;42.588;23.358;2022-12-07T08:16:06;90890.81;;;6.22;100.00
6395;BME280;3230;42.588;23.358;2022-12-07T08:18:36;90893.88;;;6.51;100.00
6395;BME280;3230;42.588;23.358;2022-12-07T08:21:03;90891.50;;;6.50;100.00
6395;BME280;3230;42.588;23.358;2022-12-07T08:23:29;90895.25;;;6.69;100.00
6395;BME280;3230;42.588;23.358;2022-12-07T08:25:55;90902.31;;;6.69;100.00
6395;BME280;3230;42.588;23.358;2022-12-07T08:28:20;90893.59;;;6.48;100.00
6395;BME280;3230;42.588;23.358;2022-12-07T08:30:46;90887.28;;;6.33;100.00
6395;BME280;3230;42.588;23.358;2022-12-07T08:33:12;90887.97;;;6.66;100.00
6395;BME280;3230;42.588;23.358;2022-12-07T08:35:38;90888.00;;;6.77;100.00
6395;BME280;3230;42.588;23.358;2022-12-07T08:38:03;90892.31;;;7.09;100.00
6395;BME280;3230;42.588;23.358;2022-12-07T08:40:29;90894.78;;;6.78;100.00
6395;BME280;3230;42.588;23.358;2022-12-07T08:42:54;90901.66;;;6.99;100.00
6395;BME280;3230;42.588;23.358;2022-12-07T08:45:21;90900.03;;;6.83;100.00
6395;BME280;3230;42.588;23.358;2022-12-07T08:47:58;90895.09;;;6.86;100.00
6395;BME280;3230;42.588;23.358;2022-12-07T08:50:26;90893.75;;;6.79;100.00
6395;BME280;3230;42.588;23.358;2022-12-07T08:52:54;90891.22;;;6.94;100.00
6395;BME280;3230;42.588;23.358;2022-12-07T08:55:21;90899.56;;;7.01;100.00
6395;BME280;3230;42.588;23.358;2022-12-07T08:57:47;90900.03;;;6.88;100.00
6395;BME280;3230;42.588;23.358;2022-12-07T09:00:13;90888.59;;;6.89;100.00
6395;BME280;3230;42.588;23.358;2022-12-07T09:02:39;90888.38;;;6.96;100.00
6395;BME280;3230;42.588;23.358;2022-12-07T09:05:05;90885.56;;;7.08;100.00
6395;BME280;3230;42.588;23.358;2022-12-07T09:07:32;90872.94;;;6.89;100.00
6395;BME280;3230;42.588;23.358;2022-12-07T09:09:59;90878.78;;;7.07;100.00
6395;BME280;3230;42.588;23.358;2022-12-07T09:12:24;90879.66;;;7.43;100.00
6395;BME280;3230;42.588;23.358;2022-12-07T09:14:50;90886.22;;;7.66;100.00
6395;BME280;3230;42.588;23.358;2022-12-07T09:17:16;90874.22;;;7.91;100.00
6395;BME280;3230;42.588;23.358;2022-12-07T09:19:41;90880.75;;;8.09;100.00
6395;BME280;3230;42.588;23.358;2022-12-07T09:22:08;90880.22;;;8.18;100.00
6395;BME280;3230;42.588;23.358;2022-12-07T09:24:34;90876.81;;;8.27;100.00
6395;BME280;3230;42.588;23.358;2022-12-07T09:27:00;90879.94;;;8.24;100.00
6395;BME280;3230;42.588;23.358;2022-12-07T09:29:25;90875.53;;;8.25;100.00
6395;BME280;3230;42.588;23.358;2022-12-07T09:31:51;90877.63;;;8.33;100.00
6395;BME280;3230;42.588;23.358;2022-12-07T09:34:17;90876.81;;;8.32;100.00
6395;BME280;3230;42.588;23.358;2022-12-07T09:36:43;90879.69;;;8.52;99.99
6395;BME280;3230;42.588;23.358;2022-12-07T09:39:09;90882.06;;;8.22;100.00
6395;BME280;3230;42.588;23.358;2022-12-07T09:41:41;90867.44;;;8.06;100.00
6395;BME280;3230;42.588;23.358;2022-12-07T09:44:12;90854.91;;;7.97;100.00
6395;BME280;3230;42.588;23.358;2022-12-07T09:46:40;90858.06;;;7.94;100.00
6395;BME280;3230;42.588;23.358;2022-12-07T09:49:14;90849.69;;;7.66;100.00
6395;BME280;3230;42.588;23.358;2022-12-07T09:51:41;90854.91;;;7.97;100.00
6395;BME280;3230;42.588;23.358;2022-12-07T09:54:09;90849.16;;;7.69;100.00
6395;BME280;3230;42.588;23.358;2022-12-07T09:56:37;90846.06;;;7.93;100.00
6395;BME280;3230;42.588;23.358;2022-12-07T09:59:02;90847.38;;;8.06;100.00
6395;BME280;3230;42.588;23.358;2022-12-07T10:01:30;90846.81;;;7.94;100.00
6395;BME280;3230;42.588;23.358;2022-12-07T10:04:11;90839.78;;;7.99;100.00
6395;BME280;3230;42.588;23.358;2022-12-07T10:06:38;90841.59;;;8.30;100.00
6395;BME280;3230;42.588;23.358;2022-12-07T10:09:15;90846.03;;;8.24;100.00
6395;BME280;3230;42.588;23.358;2022-12-07T10:14:28;90840.25;;;8.38;99.24
6395;BME280;3230;42.588;23.358;2022-12-07T10:16:54;90835.56;;;8.40;100.00
6395;BME280;3230;42.588;23.358;2022-12-07T10:19:25;90845.22;;;8.55;99.82
6395;BME280;3230;42.588;23.358;2022-12-07T10:24:28;90849.16;;;8.47;98.86
6395;BME280;3230;42.588;23.358;2022-12-07T10:26:54;90843.66;;;8.48;98.26
6395;BME280;3230;42.588;23.358;2022-12-07T10:29:31;90833.94;;;8.70;99.33
6395;BME280;3230;42.588;23.358;2022-12-07T10:34:41;90835.97;;;8.88;96.29
6395;BME280;3230;42.588;23.358;2022-12-07T10:42:24;90816.53;;;9.10;95.04
6395;BME280;3230;42.588;23.358;2022-12-07T10:45:12;90820.97;;;9.09;96.67
6395;BME280;3230;42.588;23.358;2022-12-07T10:47:47;90814.38;;;9.22;95.33
6395;BME280;3230;42.588;23.358;2022-12-07T10:56:16;90814.41;;;9.17;96.79
6395;BME280;3230;42.588;23.358;2022-12-07T11:14:58;90782.25;;;8.61;98.79
6395;BME280;3230;42.588;23.358;2022-12-07T11:25:40;90770.13;;;8.86;97.89
6395;BME280;3230;42.588;23.358;2022-12-07T11:36:51;90752.00;;;8.55;100.00
6395;BME280;3230;42.588;23.358;2022-12-07T11:39:30;90741.47;;;8.66;100.00
6395;BME280;3230;42.588;23.358;2022-12-07T11:42:06;90738.56;;;8.77;99.99
6395;BME280;3230;42.588;23.358;2022-12-07T11:44:54;90764.19;;;8.70;99.21
6395;BME280;3230;42.588;23.358;2022-12-07T11:47:35;90752.84;;;8.25;100.00
6395;BME280;3230;42.588;23.358;2022-12-07T11:53:03;90746.94;;;7.88;100.00
6395;BME280;3230;42.588;23.358;2022-12-07T11:55:57;90737.53;;;7.87;100.00
6395;BME280;3230;42.588;23.358;2022-12-07T12:03:50;90729.09;;;8.21;100.00
6395;BME280;3230;42.588;23.358;2022-12-07T12:06:16;90718.63;;;8.37;100.00
6395;BME280;3230;42.588;23.358;2022-12-07T12:08:43;90720.44;;;8.46;100.00
6395;BME280;3230;42.588;23.358;2022-12-07T12:22:43;90709.34;;;8.70;100.00
6395;BME280;3230;42.588;23.358;2022-12-07T12:25:34;90705.53;;;8.47;100.00
6395;BME280;3230;42.588;23.358;2022-12-07T12:28:01;90694.06;;;8.48;100.00
6395;BME280;3230;42.588;23.358;2022-12-07T12:30:39;90692.88;;;8.75;99.70
6395;BME280;3230;42.588;23.358;2022-12-07T12:33:28;90681.38;;;8.71;99.13
6395;BME280;3230;42.588;23.358;2022-12-07T12:36:24;90673.84;;;8.64;100.00
6395;BME280;3230;42.588;23.358;2022-12-07T12:39:15;90677.75;;;8.67;100.00
6395;BME280;3230;42.588;23.358;2022-12-07T12:46:52;90683.38;;;8.89;99.55
6395;BME280;3230;42.588;23.358;2022-12-07T12:51:43;90685.66;;;8.96;98.02
6395;BME280;3230;42.588;23.358;2022-12-07T12:54:18;90684.22;;;8.74;98.80
6395;BME280;3230;42.588;23.358;2022-12-07T12:56:53;90687.84;;;8.84;98.19
6395;BME280;3230;42.588;23.358;2022-12-07T12:59:28;90679.41;;;8.97;96.94
6395;BME280;3230;42.588;23.358;2022-12-07T13:02:20;90690.13;;;8.95;97.79
6395;BME280;3230;42.588;23.358;2022-12-07T13:10:34;90679.69;;;9.30;95.65
6395;BME280;3230;42.588;23.358;2022-12-07T13:15:38;90658.75;;;9.59;92.93
6395;BME280;3230;42.588;23.358;2022-12-07T13:20:58;90682.00;;;9.66;94.27
6395;BME280;3230;42.588;23.358;2022-12-07T13:31:39;90696.31;;;9.05;95.91
6395;BME280;3230;42.588;23.358;2022-12-07T13:34:28;90694.44;;;8.76;97.87
6395;BME280;3230;42.588;23.358;2022-12-07T13:36:54;90680.19;;;8.47;98.62
6395;BME280;3230;42.588;23.358;2022-12-07T13:39:22;90684.19;;;8.29;98.66
6395;BME280;3230;42.588;23.358;2022-12-07T13:41:56;90704.03;;;8.25;99.31
6395;BME280;3230;42.588;23.358;2022-12-07T13:44:24;90696.25;;;8.05;100.00
6395;BME280;3230;42.588;23.358;2022-12-07T13:49:50;90685.09;;;7.89;100.00
6395;BME280;3230;42.588;23.358;2022-12-07T13:52:19;90694.72;;;7.93;100.00
6395;BME280;3230;42.588;23.358;2022-12-07T13:57:30;90692.63;;;7.90;100.00
6395;BME280;3230;42.588;23.358;2022-12-07T13:59:57;90677.50;;;8.03;100.00
6395;BME280;3230;42.588;23.358;2022-12-07T14:02:31;90686.03;;;8.13;98.91
6395;BME280;3230;42.588;23.358;2022-12-07T14:05:15;90671.44;;;8.18;99.82
6395;BME280;3230;42.588;23.358;2022-12-07T14:16:02;90680.84;;;8.08;99.13
6395;BME280;3230;42.588;23.358;2022-12-07T14:18:41;90693.44;;;7.91;99.47
6395;BME280;3230;42.588;23.358;2022-12-07T14:23:36;90701.03;;;7.77;100.00
6395;BME280;3230;42.588;23.358;2022-12-07T14:26:16;90688.28;;;7.60;100.00
6395;BME280;3230;42.588;23.358;2022-12-07T14:28:43;90685.19;;;7.37;100.00
6395;BME280;3230;42.588;23.358;2022-12-07T14:31:18;90680.22;;;7.41;100.00
6395;BME280;3230;42.588;23.358;2022-12-07T14:33:45;90688.56;;;7.43;100.00
6395;BME280;3230;42.588;23.358;2022-12-07T14:36:11;90688.56;;;7.32;100.00
6395;BME280;3230;42.588;23.358;2022-12-07T14:38:37;90696.38;;;7.22;100.00
6395;BME280;3230;42.588;23.358;2022-12-07T14:41:04;90693.78;;;7.12;100.00
6395;BME280;3230;42.588;23.358;2022-12-07T14:43:50;90688.06;;;6.99;100.00
6395;BME280;3230;42.588;23.358;2022-12-07T14:46:15;90692.22;;;7.00;100.00
6395;BME280;3230;42.588;23.358;2022-12-07T14:48:41;90689.31;;;6.92;100.00
6395;BME280;3230;42.588;23.358;2022-12-07T14:51:08;90684.38;;;6.80;100.00
6395;BME280;3230;42.588;23.358;2022-12-07T14:53:40;90679.69;;;6.71;100.00
6395;BME280;3230;42.588;23.358;2022-12-07T14:56:06;90673.94;;;6.64;100.00
6395;BME280;3230;42.588;23.358;2022-12-07T14:58:32;90681.22;;;6.52;100.00
6395;BME280;3230;42.588;23.358;2022-12-07T15:00:58;90686.16;;;6.48;100.00
6395;BME280;3230;42.588;23.358;2022-12-07T15:03:23;90697.31;;;6.44;100.00
6395;BME280;3230;42.588;23.358;2022-12-07T15:05:48;90702.25;;;6.40;100.00
6395;BME280;3230;42.588;23.358;2022-12-07T15:08:14;90705.59;;;6.30;100.00
6395;BME280;3230;42.588;23.358;2022-12-07T15:10:40;90706.34;;;6.20;100.00
6395;BME280;3230;42.588;23.358;2022-12-07T15:13:06;90702.63;;;6.01;100.00
6395;BME280;3230;42.588;23.358;2022-12-07T15:15:51;90700.75;;;5.96;100.00
6395;BME280;3230;42.588;23.358;2022-12-07T15:18:19;90702.81;;;5.89;100.00
6395;BME280;3230;42.588;23.358;2022-12-07T15:20:45;90700.44;;;5.82;100.00
6395;BME280;3230;42.588;23.358;2022-12-07T15:23:11;90700.19;;;5.84;100.00
6395;BME280;3230;42.588;23.358;2022-12-07T15:25:40;90687.63;;;5.70;100.00
6395;BME280;3230;42.588;23.358;2022-12-07T15:28:06;90697.00;;;5.71;100.00
6395;BME280;3230;42.588;23.358;2022-12-07T15:30:31;90699.59;;;5.71;100.00
6395;BME280;3230;42.588;23.358;2022-12-07T15:32:57;90695.69;;;5.69;100.00
6395;BME280;3230;42.588;23.358;2022-12-07T15:35:22;90700.88;;;5.69;100.00
6395;BME280;3230;42.588;23.358;2022-12-07T15:37:48;90700.31;;;5.62;100.00
6395;BME280;3230;42.588;23.358;2022-12-07T15:40:13;90699.53;;;5.61;100.00
6395;BME280;3230;42.588;23.358;2022-12-07T15:42:40;90695.34;;;5.60;100.00
6395;BME280;3230;42.588;23.358;2022-12-07T15:45:07;90711.38;;;5.41;100.00
6395;BME280;3230;42.588;23.358;2022-12-07T15:47:37;90706.03;;;5.21;100.00